| time (UTC) | temp C | wind direction | speed KPH | gust KPH | rain 1hr cm | rain 24hr cm | rain mn cm | humidity % | barometer mb |
| 20260508211727 | 28 | 2 | 14.5 | 35.4 | 0.00 | 0.00 | 0.00 | 21 | 1010.9 |
| 20260508211223 | 27 | 4 | 12.9 | 32.2 | 0.00 | 0.00 | 0.00 | 22 | 1010.9 |
| 20260508210721 | 28 | 30 | 17.7 | 25.7 | 0.00 | 0.00 | 0.00 | 22 | 1010.7 |
| 20260508210218 | 28 | 28 | 20.9 | 35.4 | 0.00 | 0.00 | 0.00 | 23 | 1011.0 |
| 20260508205715 | 28 | 38 | 19.3 | 27.4 | 0.00 | 0.00 | 0.00 | 22 | 1011.1 |
| 20260508205211 | 28 | 27 | 24.1 | 30.6 | 0.00 | 0.00 | 0.00 | 22 | 1011.0 |
| 20260508204707 | 28 | 331 | 17.7 | 27.4 | 0.00 | 0.00 | 0.00 | 21 | 1011.1 |
| 20260508204204 | 28 | 11 | 17.7 | 27.4 | 0.00 | 0.00 | 0.00 | 22 | 1011.0 |
| 20260508203700 | 28 | 3 | 30.6 | 33.8 | 0.00 | 0.00 | 0.00 | 21 | 1011.0 |
| 20260508203156 | 28 | 46 | 19.3 | 24.1 | 0.00 | 0.00 | 0.00 | 22 | 1011.2 |
| 20260508202652 | 28 | 337 | 17.7 | 30.6 | 0.00 | 0.00 | 0.00 | 21 | 1011.1 |
| 20260508202150 | 27 | 12 | 8.0 | 19.3 | 0.00 | 0.00 | 0.00 | 23 | 1011.0 |
| 20260508201646 | 27 | 346 | 16.1 | 25.7 | 0.00 | 0.00 | 0.00 | 21 | 1011.0 |
| 20260508201143 | 28 | 31 | 17.7 | 22.5 | 0.00 | 0.00 | 0.00 | 22 | 1011.1 |
| 20260508200640 | 27 | 346 | 11.3 | 27.4 | 0.00 | 0.00 | 0.00 | 22 | 1011.1 |
| 20260508200136 | 28 | 0 | 19.3 | 30.6 | 0.00 | 0.00 | 0.00 | 23 | 1011.1 |
| 20260508195633 | 28 | 351 | 20.9 | 25.7 | 0.00 | 0.00 | 0.00 | 24 | 1011.0 |
| 20260508195129 | 28 | 27 | 14.5 | 20.9 | 0.00 | 0.00 | 0.00 | 25 | 1011.0 |
| 20260508194626 | 27 | 62 | 11.3 | 22.5 | 0.00 | 0.00 | 0.00 | 26 | 1011.3 |
| 20260508194123 | 27 | 353 | 20.9 | 24.1 | 0.00 | 0.00 | 0.00 | 24 | 1011.2 |
| 20260508193620 | 28 | 351 | 20.9 | 27.4 | 0.00 | 0.00 | 0.00 | 25 | 1011.1 |
| 20260508193116 | 27 | 56 | 6.4 | 16.1 | 0.00 | 0.00 | 0.00 | 26 | 1011.3 |
| 20260508192613 | 27 | 0 | 19.3 | 25.7 | 0.00 | 0.00 | 0.00 | 25 | 1011.3 |
| 20260508192110 | 27 | 0 | 19.3 | 24.1 | 0.00 | 0.00 | 0.00 | 24 | 1011.3 |
| 20260508191607 | 28 | 82 | 16.1 | 22.5 | 0.00 | 0.00 | 0.00 | 25 | 1011.1 |
| 20260508191104 | 27 | 352 | 25.7 | 29.0 | 0.00 | 0.00 | 0.00 | 24 | 1011.2 |
| 20260508190601 | 27 | 343 | 16.1 | 17.7 | 0.00 | 0.00 | 0.00 | 25 | 1011.2 |
| 20260508190057 | 27 | 351 | 11.3 | 25.7 | 0.00 | 0.00 | 0.00 | 25 | 1011.5 |
| 20260508185554 | 27 | 328 | 17.7 | 22.5 | 0.00 | 0.00 | 0.00 | 25 | 1011.2 |
| 20260508185053 | 27 | 343 | 11.3 | 25.7 | 0.00 | 0.00 | 0.00 | 25 | 1011.3 |
| 20260508184549 | 27 | 6 | 8.0 | 29.0 | 0.00 | 0.00 | 0.00 | 25 | 1011.1 |
| 20260508184046 | 27 | 0 | 17.7 | 17.7 | 0.00 | 0.00 | 0.00 | 24 | 1011.2 |
| 20260508183542 | 27 | 346 | 1.6 | 16.1 | 0.00 | 0.00 | 0.00 | 24 | 1011.3 |
| 20260508183038 | 26 | 338 | 9.7 | 14.5 | 0.00 | 0.00 | 0.00 | 24 | 1011.3 |
| 20260508182534 | 27 | 319 | 9.7 | 19.3 | 0.00 | 0.00 | 0.00 | 25 | 1011.3 |
| 20260508182026 | 27 | 232 | 16.1 | 20.9 | 0.00 | 0.00 | 0.00 | 25 | 1011.5 |
| 20260508181521 | 26 | 233 | 4.8 | 16.1 | 0.00 | 0.00 | 0.00 | 25 | 1011.2 |
| 20260508181019 | 26 | 295 | 6.4 | 14.5 | 0.00 | 0.00 | 0.00 | 26 | 1011.8 |
| 20260508180515 | 26 | 321 | 14.5 | 20.9 | 0.00 | 0.00 | 0.00 | 26 | 1011.8 |
| 20260508180012 | 26 | 345 | 14.5 | 17.7 | 0.00 | 0.00 | 0.00 | 26 | 1011.7 |
| 20260508175508 | 25 | 276 | 6.4 | 11.3 | 0.00 | 0.00 | 0.00 | 28 | 1011.7 |
| 20260508175006 | 25 | 351 | 9.7 | 16.1 | 0.00 | 0.00 | 0.00 | 27 | 1011.8 |
| 20260508174503 | 26 | 296 | 14.5 | 17.7 | 0.00 | 0.00 | 0.00 | 27 | 1011.7 |
| 20260508174000 | 25 | 281 | 9.7 | 12.9 | 0.00 | 0.00 | 0.00 | 28 | 1012.0 |
| 20260508173457 | 25 | 217 | 6.4 | 9.7 | 0.00 | 0.00 | 0.00 | 29 | 1011.6 |
| 20260508172953 | 25 | 333 | 14.5 | 20.9 | 0.00 | 0.00 | 0.00 | 29 | 1011.9 |
| 20260508172450 | 25 | 273 | 3.2 | 12.9 | 0.00 | 0.00 | 0.00 | 29 | 1011.9 |
| 20260508171946 | 25 | 268 | 9.7 | 11.3 | 0.00 | 0.00 | 0.00 | 31 | 1012.1 |
| 20260508171443 | 25 | 302 | 9.7 | 9.7 | 0.00 | 0.00 | 0.00 | 30 | 1011.9 |
| 20260508170939 | 24 | 337 | 4.8 | 8.0 | 0.00 | 0.00 | 0.00 | 32 | 1012.1 |
| 20260508170437 | 24 | 254 | 8.0 | 14.5 | 0.00 | 0.00 | 0.00 | 33 | 1012.2 |
| 20260508165934 | 23 | 264 | 3.2 | 14.5 | 0.00 | 0.00 | 0.00 | 34 | 1012.3 |
| 20260508165432 | 23 | 226 | 16.1 | 16.1 | 0.00 | 0.00 | 0.00 | 34 | 1012.3 |
| 20260508164927 | 23 | 302 | 4.8 | 9.7 | 0.00 | 0.00 | 0.00 | 34 | 1012.3 |
| 20260508164425 | 23 | 222 | 14.5 | 19.3 | 0.00 | 0.00 | 0.00 | 34 | 1012.1 |
| 20260508163922 | 23 | 240 | 6.4 | 16.1 | 0.00 | 0.00 | 0.00 | 36 | 1012.3 |
| 20260508163420 | 22 | 305 | 9.7 | 14.5 | 0.00 | 0.00 | 0.00 | 37 | 1012.2 |
| 20260508162915 | 22 | 230 | 6.4 | 17.7 | 0.00 | 0.00 | 0.00 | 36 | 1012.6 |
| 20260508162413 | 22 | 238 | 6.4 | 12.9 | 0.00 | 0.00 | 0.00 | 36 | 1012.6 |
| 20260508161909 | 22 | 227 | 17.7 | 20.9 | 0.00 | 0.00 | 0.00 | 37 | 1012.5 |
| 20260508161407 | 22 | 274 | 6.4 | 17.7 | 0.00 | 0.00 | 0.00 | 39 | 1012.7 |
| 20260508160904 | 22 | 273 | 4.8 | 16.1 | 0.00 | 0.00 | 0.00 | 39 | 1012.5 |
| 20260508160403 | 22 | 254 | 8.0 | 22.5 | 0.00 | 0.00 | 0.00 | 39 | 1012.8 |
| 20260508155858 | 22 | 319 | 9.7 | 17.7 | 0.00 | 0.00 | 0.00 | 40 | 1012.7 |
| 20260508155356 | 21 | 251 | 9.7 | 17.7 | 0.00 | 0.00 | 0.00 | 40 | 1012.8 |
| 20260508154852 | 21 | 289 | 12.9 | 20.9 | 0.00 | 0.00 | 0.00 | 42 | 1012.7 |
| 20260508154350 | 21 | 217 | 9.7 | 19.3 | 0.00 | 0.00 | 0.00 | 42 | 1012.8 |
| 20260508153846 | 21 | 233 | 16.1 | 20.9 | 0.00 | 0.00 | 0.00 | 43 | 1012.8 |
| 20260508153344 | 21 | 281 | 14.5 | 20.9 | 0.00 | 0.00 | 0.00 | 43 | 1012.9 |
| 20260508152839 | 21 | 228 | 14.5 | 22.5 | 0.00 | 0.00 | 0.00 | 46 | 1013.0 |
| 20260508152336 | 20 | 222 | 12.9 | 22.5 | 0.00 | 0.00 | 0.00 | 48 | 1012.8 |
| 20260508151833 | 21 | 251 | 9.7 | 17.7 | 0.00 | 0.00 | 0.00 | 47 | 1012.9 |
| 20260508151330 | 20 | 226 | 12.9 | 19.3 | 0.00 | 0.00 | 0.00 | 48 | 1012.9 |
| 20260508150826 | 20 | 232 | 8.0 | 20.9 | 0.00 | 0.00 | 0.00 | 51 | 1012.8 |
| 20260508150323 | 19 | 228 | 9.7 | 22.5 | 0.00 | 0.00 | 0.00 | 53 | 1012.9 |
| 20260508145819 | 18 | 226 | 17.7 | 25.7 | 0.00 | 0.00 | 0.00 | 54 | 1012.9 |
| 20260508145315 | 19 | 221 | 16.1 | 27.4 | 0.00 | 0.00 | 0.00 | 54 | 1012.8 |
| 20260508144812 | 18 | 204 | 14.5 | 19.3 | 0.00 | 0.00 | 0.00 | 55 | 1013.1 |
| 20260508144310 | 18 | 229 | 14.5 | 22.5 | 0.00 | 0.00 | 0.00 | 57 | 1012.8 |
| 20260508143807 | 17 | 208 | 17.7 | 27.4 | 0.00 | 0.00 | 0.00 | 58 | 1012.7 |
| 20260508143304 | 17 | 214 | 14.5 | 32.2 | 0.00 | 0.00 | 0.00 | 58 | 1013.1 |
| 20260508142801 | 17 | 211 | 27.4 | 29.0 | 0.00 | 0.00 | 0.00 | 58 | 1012.8 |
| 20260508142258 | 18 | 215 | 22.5 | 27.4 | 0.00 | 0.00 | 0.00 | 57 | 1013.0 |
| 20260508141754 | 17 | 199 | 17.7 | 24.1 | 0.00 | 0.00 | 0.00 | 58 | 1013.1 |
| 20260508141251 | 17 | 218 | 6.4 | 20.9 | 0.00 | 0.00 | 0.00 | 61 | 1013.3 |
| 20260508140749 | 17 | 229 | 6.4 | 9.7 | 0.00 | 0.00 | 0.00 | 61 | 1013.5 |
| 20260508140246 | 16 | 234 | 4.8 | 8.0 | 0.00 | 0.00 | 0.00 | 62 | 1013.2 |
| 20260508135741 | 16 | 219 | 6.4 | 6.4 | 0.00 | 0.00 | 0.00 | 63 | 1013.3 |
| 20260508135238 | 15 | 296 | 3.2 | 6.4 | 0.00 | 0.00 | 0.00 | 64 | 1013.8 |
| 20260508134733 | 15 | 282 | 4.8 | 9.7 | 0.00 | 0.00 | 0.00 | 64 | 1013.7 |
| 20260508134232 | 15 | 0 | 1.6 | 8.0 | 0.00 | 0.00 | 0.00 | 65 | 1013.3 |
| 20260508133727 | 15 | 210 | 6.4 | 6.4 | 0.00 | 0.00 | 0.00 | 65 | 1013.1 |
| 20260508133225 | 14 | 292 | 6.4 | 6.4 | 0.00 | 0.00 | 0.00 | 66 | 1013.3 |
| 20260508132722 | 13 | 142 | 1.6 | 9.7 | 0.00 | 0.00 | 0.00 | 68 | 1012.9 |
| 20260508132220 | 13 | 208 | 3.2 | 6.4 | 0.00 | 0.00 | 0.00 | 69 | 1012.9 |
| 20260508131715 | 13 | 207 | 3.2 | 4.8 | 0.00 | 0.00 | 0.00 | 70 | 1012.7 |
| 20260508131212 | 12 | 215 | 0.0 | 4.8 | 0.00 | 0.00 | 0.00 | 71 | 1013.0 |
| 20260508130708 | 12 | 201 | 4.8 | 6.4 | 0.00 | 0.00 | 0.00 | 72 | 1013.0 |
| 20260508130205 | 12 | 188 | 6.4 | 6.4 | 0.00 | 0.00 | 0.00 | 73 | 1012.9 |
| 20260508125655 | 11 | 277 | 1.6 | 9.7 | 0.00 | 0.00 | 0.00 | 74 | 1013.1 |
| 20260508125152 | 11 | 199 | 3.2 | 9.7 | 0.00 | 0.00 | 0.00 | 75 | 1012.9 |
| 20260508124650 | 11 | 190 | 9.7 | 14.5 | 0.00 | 0.00 | 0.00 | 76 | 1012.5 |
| 20260508124147 | 11 | 181 | 9.7 | 12.9 | 0.00 | 0.00 | 0.00 | 77 | 1012.5 |
| 20260508123646 | 10 | 200 | 9.7 | 9.7 | 0.00 | 0.00 | 0.00 | 78 | 1012.7 |
| 20260508123143 | 10 | 202 | 4.8 | 8.0 | 0.00 | 0.00 | 0.00 | 78 | 1012.7 |
| 20260508122639 | 10 | 211 | 3.2 | 6.4 | 0.00 | 0.00 | 0.00 | 79 | 1012.6 |
| 20260508122136 | 10 | 209 | 8.0 | 9.7 | 0.00 | 0.00 | 0.00 | 80 | 1012.6 |
| 20260508121634 | 9 | 180 | 8.0 | 12.9 | 0.00 | 0.00 | 0.00 | 80 | 1012.6 |
| 20260508121132 | 9 | 201 | 11.3 | 14.5 | 0.00 | 0.00 | 0.00 | 80 | 1012.5 |
| 20260508120629 | 9 | 193 | 6.4 | 14.5 | 0.00 | 0.00 | 0.00 | 81 | 1012.5 |
| 20260508120127 | 8 | 199 | 9.7 | 9.7 | 0.00 | 0.00 | 0.00 | 82 | 1012.3 |
| 20260508115625 | 8 | 179 | 6.4 | 8.0 | 0.00 | 0.00 | 0.00 | 80 | 1012.3 |
| 20260508115121 | 9 | 194 | 4.8 | 8.0 | 0.00 | 0.00 | 0.00 | 80 | 1012.3 |
| 20260508114618 | 10 | 207 | 9.7 | 11.3 | 0.00 | 0.00 | 0.00 | 79 | 1012.3 |
| 20260508114114 | 10 | 202 | 8.0 | 12.9 | 0.00 | 0.00 | 0.00 | 78 | 1012.6 |
| 20260508113612 | 10 | 208 | 8.0 | 17.7 | 0.00 | 0.00 | 0.00 | 77 | 1012.2 |
| 20260508113110 | 10 | 202 | 12.9 | 22.5 | 0.00 | 0.00 | 0.00 | 77 | 1012.1 |
| 20260508112605 | 10 | 199 | 9.7 | 17.7 | 0.00 | 0.00 | 0.00 | 76 | 1012.2 |
| 20260508112103 | 11 | 202 | 16.1 | 17.7 | 0.00 | 0.00 | 0.00 | 76 | 1012.3 |
| 20260508111600 | 11 | 210 | 14.5 | 20.9 | 0.00 | 0.00 | 0.00 | 75 | 1012.5 |
| 20260508111057 | 11 | 195 | 14.5 | 19.3 | 0.00 | 0.00 | 0.00 | 74 | 1012.5 |
| 20260508110555 | 12 | 198 | 11.3 | 20.9 | 0.00 | 0.00 | 0.00 | 73 | 1012.6 |
| 20260508110050 | 12 | 205 | 14.5 | 19.3 | 0.00 | 0.00 | 0.00 | 73 | 1012.3 |
| 20260508105545 | 12 | 210 | 9.7 | 20.9 | 0.00 | 0.00 | 0.00 | 72 | 1012.3 |
| 20260508105043 | 12 | 217 | 14.5 | 20.9 | 0.00 | 0.00 | 0.00 | 72 | 1012.6 |
| 20260508104541 | 12 | 229 | 14.5 | 19.3 | 0.00 | 0.00 | 0.00 | 72 | 1012.5 |
| 20260508104037 | 12 | 227 | 16.1 | 19.3 | 0.00 | 0.00 | 0.00 | 72 | 1012.7 |
| 20260508103534 | 12 | 226 | 12.9 | 20.9 | 0.00 | 0.00 | 0.00 | 72 | 1012.5 |
| 20260508103031 | 12 | 223 | 12.9 | 17.7 | 0.00 | 0.00 | 0.00 | 71 | 1012.6 |
| 20260508102529 | 12 | 208 | 11.3 | 17.7 | 0.00 | 0.00 | 0.00 | 71 | 1012.6 |
| 20260508102027 | 12 | 207 | 11.3 | 17.7 | 0.00 | 0.00 | 0.00 | 71 | 1012.6 |
| 20260508101524 | 12 | 210 | 12.9 | 20.9 | 0.00 | 0.00 | 0.00 | 70 | 1012.7 |
| 20260508101021 | 12 | 207 | 9.7 | 16.1 | 0.00 | 0.00 | 0.00 | 70 | 1012.7 |
| 20260508100519 | 12 | 217 | 12.9 | 20.9 | 0.00 | 0.00 | 0.00 | 69 | 1012.6 |
| 20260508100016 | 12 | 202 | 19.3 | 20.9 | 0.00 | 0.00 | 0.00 | 69 | 1013.1 |
| 20260508095513 | 12 | 207 | 12.9 | 22.5 | 0.00 | 0.00 | 0.00 | 69 | 1012.7 |
| 20260508095009 | 12 | 206 | 12.9 | 16.1 | 0.00 | 0.00 | 0.00 | 68 | 1012.8 |
| 20260508094507 | 12 | 217 | 11.3 | 16.1 | 0.00 | 0.00 | 0.00 | 68 | 1013.2 |
| 20260508094003 | 12 | 215 | 17.7 | 19.3 | 0.00 | 0.00 | 0.00 | 68 | 1013.0 |
| 20260508093500 | 12 | 207 | 16.1 | 17.7 | 0.00 | 0.00 | 0.00 | 67 | 1013.0 |
| 20260508092958 | 12 | 210 | 16.1 | 19.3 | 0.00 | 0.00 | 0.00 | 68 | 1013.0 |
| 20260508092455 | 12 | 215 | 14.5 | 22.5 | 0.00 | 0.00 | 0.00 | 67 | 1013.1 |
| 20260508091954 | 12 | 205 | 14.5 | 20.9 | 0.00 | 0.00 | 0.00 | 66 | 1013.1 |
| 20260508091450 | 13 | 210 | 19.3 | 27.4 | 0.00 | 0.00 | 0.00 | 65 | 1013.2 |
| 20260508090948 | 13 | 207 | 20.9 | 30.6 | 0.00 | 0.00 | 0.00 | 65 | 1013.0 |
| 20260508090446 | 12 | 213 | 22.5 | 30.6 | 0.00 | 0.00 | 0.00 | 65 | 1013.1 |
| 20260508085941 | 12 | 213 | 22.5 | 29.0 | 0.00 | 0.00 | 0.00 | 65 | 1013.0 |
| 20260508085438 | 12 | 206 | 17.7 | 25.7 | 0.00 | 0.00 | 0.00 | 65 | 1012.8 |
| 20260508084935 | 12 | 198 | 16.1 | 25.7 | 0.00 | 0.00 | 0.00 | 64 | 1013.0 |
| 20260508084432 | 12 | 197 | 19.3 | 27.4 | 0.00 | 0.00 | 0.00 | 64 | 1013.1 |
| 20260508083930 | 12 | 209 | 22.5 | 27.4 | 0.00 | 0.00 | 0.00 | 63 | 1013.1 |
| 20260508083426 | 12 | 209 | 22.5 | 33.8 | 0.00 | 0.00 | 0.00 | 63 | 1013.1 |
| 20260508082921 | 13 | 212 | 24.1 | 32.2 | 0.00 | 0.00 | 0.00 | 62 | 1012.9 |
| 20260508082418 | 12 | 216 | 27.4 | 32.2 | 0.00 | 0.00 | 0.00 | 63 | 1013.1 |
| 20260508081916 | 12 | 208 | 19.3 | 22.5 | 0.00 | 0.00 | 0.00 | 64 | 1012.8 |
| 20260508081413 | 11 | 198 | 16.1 | 17.7 | 0.00 | 0.00 | 0.00 | 64 | 1012.9 |
| 20260508080909 | 11 | 193 | 16.1 | 17.7 | 0.00 | 0.00 | 0.00 | 63 | 1013.1 |
| 20260508080408 | 11 | 196 | 14.5 | 16.1 | 0.00 | 0.00 | 0.00 | 62 | 1013.2 |
| 20260508075903 | 12 | 180 | 11.3 | 17.7 | 0.00 | 0.00 | 0.00 | 61 | 1013.2 |
| 20260508075401 | 12 | 206 | 11.3 | 19.3 | 0.00 | 0.00 | 0.00 | 60 | 1013.3 |
| 20260508074859 | 12 | 193 | 11.3 | 19.3 | 0.00 | 0.00 | 0.00 | 59 | 1013.3 |
| 20260508074355 | 12 | 199 | 14.5 | 17.7 | 0.00 | 0.00 | 0.00 | 58 | 1013.3 |
| 20260508073852 | 12 | 201 | 11.3 | 17.7 | 0.00 | 0.00 | 0.00 | 57 | 1013.2 |
| 20260508073350 | 12 | 191 | 14.5 | 20.9 | 0.00 | 0.00 | 0.00 | 56 | 1013.1 |
| 20260508072846 | 12 | 212 | 11.3 | 20.9 | 0.00 | 0.00 | 0.00 | 56 | 1013.3 |
| 20260508072343 | 12 | 205 | 12.9 | 22.5 | 0.00 | 0.00 | 0.00 | 55 | 1013.2 |
| 20260508071840 | 12 | 208 | 16.1 | 17.7 | 0.00 | 0.00 | 0.00 | 54 | 1013.3 |
| 20260508071339 | 13 | 205 | 16.1 | 24.1 | 0.00 | 0.00 | 0.00 | 53 | 1013.0 |
| 20260508070837 | 13 | 203 | 16.1 | 24.1 | 0.00 | 0.00 | 0.00 | 52 | 1013.1 |
| 20260508070334 | 13 | 198 | 9.7 | 25.7 | 0.00 | 0.00 | 0.00 | 52 | 1013.2 |
| 20260508065831 | 12 | 195 | 17.7 | 20.9 | 0.00 | 0.00 | 0.00 | 53 | 1013.5 |
| 20260508065329 | 12 | 204 | 16.1 | 20.9 | 0.00 | 0.00 | 0.00 | 52 | 1013.3 |
| 20260508064827 | 12 | 196 | 11.3 | 17.7 | 0.00 | 0.00 | 0.00 | 52 | 1013.6 |
| 20260508064324 | 12 | 193 | 14.5 | 19.3 | 0.00 | 0.00 | 0.00 | 52 | 1013.5 |
| 20260508063822 | 12 | 201 | 9.7 | 17.7 | 0.00 | 0.00 | 0.00 | 52 | 1013.7 |
| 20260508063320 | 12 | 192 | 9.7 | 19.3 | 0.00 | 0.00 | 0.00 | 53 | 1013.6 |
| 20260508062817 | 12 | 188 | 14.5 | 14.5 | 0.00 | 0.00 | 0.00 | 53 | 1013.6 |
| 20260508062314 | 12 | 168 | 11.3 | 14.5 | 0.00 | 0.00 | 0.00 | 54 | 1013.6 |
| 20260508061811 | 12 | 180 | 8.0 | 9.7 | 0.00 | 0.00 | 0.00 | 54 | 1013.5 |
| 20260508061309 | 12 | 170 | 8.0 | 12.9 | 0.00 | 0.00 | 0.00 | 53 | 1013.7 |
| 20260508060804 | 12 | 164 | 12.9 | 14.5 | 0.00 | 0.00 | 0.00 | 54 | 1013.9 |
| 20260508060303 | 12 | 169 | 8.0 | 11.3 | 0.00 | 0.00 | 0.00 | 53 | 1013.8 |
| 20260508055757 | 12 | 165 | 6.4 | 11.3 | 0.00 | 0.00 | 0.00 | 52 | 1013.8 |
| 20260508055255 | 12 | 161 | 9.7 | 9.7 | 0.00 | 0.00 | 0.00 | 52 | 1013.8 |
| 20260508054751 | 12 | 166 | 8.0 | 12.9 | 0.00 | 0.00 | 0.00 | 51 | 1013.9 |
| 20260508054249 | 12 | 167 | 9.7 | 11.3 | 0.00 | 0.00 | 0.00 | 50 | 1013.9 |
| 20260508053746 | 13 | 178 | 9.7 | 12.9 | 0.00 | 0.00 | 0.00 | 49 | 1014.0 |
| 20260508053243 | 13 | 170 | 14.5 | 16.1 | 0.00 | 0.00 | 0.00 | 48 | 1014.1 |
| 20260508052740 | 13 | 188 | 12.9 | 17.7 | 0.00 | 0.00 | 0.00 | 47 | 1013.8 |
| 20260508052238 | 14 | 178 | 12.9 | 17.7 | 0.00 | 0.00 | 0.00 | 47 | 1013.9 |
| 20260508051733 | 14 | 189 | 9.7 | 14.5 | 0.00 | 0.00 | 0.00 | 46 | 1014.1 |
| 20260508051229 | 15 | 173 | 12.9 | 17.7 | 0.00 | 0.00 | 0.00 | 45 | 1014.1 |
| 20260508050726 | 15 | 172 | 9.7 | 17.7 | 0.00 | 0.00 | 0.00 | 45 | 1014.3 |
| 20260508050223 | 15 | 183 | 12.9 | 17.7 | 0.00 | 0.00 | 0.00 | 44 | 1014.2 |
| 20260508045718 | 15 | 176 | 12.9 | 17.7 | 0.00 | 0.00 | 0.00 | 44 | 1014.0 |
| 20260508045217 | 15 | 179 | 14.5 | 17.7 | 0.00 | 0.00 | 0.00 | 43 | 1014.1 |
| 20260508044714 | 15 | 171 | 14.5 | 16.1 | 0.00 | 0.00 | 0.00 | 43 | 1014.2 |
| 20260508044210 | 15 | 168 | 14.5 | 20.9 | 0.00 | 0.00 | 0.00 | 43 | 1014.2 |
| 20260508043706 | 15 | 165 | 14.5 | 14.5 | 0.00 | 0.00 | 0.00 | 43 | 1014.2 |
| 20260508043204 | 15 | 171 | 12.9 | 17.7 | 0.00 | 0.00 | 0.00 | 42 | 1014.5 |
| 20260508042700 | 15 | 155 | 11.3 | 14.5 | 0.00 | 0.00 | 0.00 | 42 | 1014.2 |
| 20260508042158 | 15 | 166 | 9.7 | 14.5 | 0.00 | 0.00 | 0.00 | 42 | 1014.2 |
| 20260508041654 | 15 | 161 | 11.3 | 16.1 | 0.00 | 0.00 | 0.00 | 41 | 1014.3 |
| 20260508041151 | 16 | 153 | 12.9 | 16.1 | 0.00 | 0.00 | 0.00 | 41 | 1014.2 |
| 20260508040647 | 16 | 160 | 14.5 | 14.5 | 0.00 | 0.00 | 0.00 | 40 | 1014.1 |
| 20260508040145 | 16 | 167 | 12.9 | 16.1 | 0.00 | 0.00 | 0.00 | 40 | 1014.2 |
| 20260508035642 | 16 | 166 | 11.3 | 16.1 | 0.00 | 0.00 | 0.00 | 40 | 1014.2 |
| 20260508035140 | 16 | 162 | 11.3 | 14.5 | 0.00 | 0.00 | 0.00 | 40 | 1014.2 |
| 20260508034636 | 16 | 173 | 9.7 | 14.5 | 0.00 | 0.00 | 0.00 | 40 | 1014.2 |
| 20260508034133 | 16 | 159 | 11.3 | 19.3 | 0.00 | 0.00 | 0.00 | 38 | 1014.0 |
| 20260508033630 | 17 | 155 | 17.7 | 20.9 | 0.00 | 0.00 | 0.00 | 38 | 1014.0 |
| 20260508033129 | 17 | 152 | 11.3 | 17.7 | 0.00 | 0.00 | 0.00 | 38 | 1014.2 |
| 20260508032625 | 17 | 154 | 14.5 | 17.7 | 0.00 | 0.00 | 0.00 | 38 | 1014.1 |
| 20260508032122 | 17 | 155 | 12.9 | 17.7 | 0.00 | 0.00 | 0.00 | 38 | 1014.1 |
| 20260508031619 | 17 | 162 | 12.9 | 16.1 | 0.00 | 0.00 | 0.00 | 37 | 1014.1 |
| 20260508031116 | 17 | 160 | 11.3 | 17.7 | 0.00 | 0.00 | 0.00 | 36 | 1013.8 |
| 20260508030612 | 17 | 150 | 11.3 | 17.7 | 0.00 | 0.00 | 0.00 | 36 | 1013.9 |
| 20260508030110 | 17 | 154 | 12.9 | 17.7 | 0.00 | 0.00 | 0.00 | 36 | 1013.9 |
| 20260508025606 | 16 | 156 | 9.7 | 12.9 | 0.00 | 0.00 | 0.00 | 37 | 1013.8 |
| 20260508025103 | 16 | 159 | 9.7 | 14.5 | 0.00 | 0.00 | 0.00 | 36 | 1013.9 |
| 20260508024559 | 16 | 153 | 12.9 | 14.5 | 0.00 | 0.00 | 0.00 | 35 | 1013.9 |
| 20260508024056 | 17 | 167 | 9.7 | 14.5 | 0.00 | 0.00 | 0.00 | 34 | 1013.6 |
| 20260508023552 | 17 | 164 | 9.7 | 17.7 | 0.00 | 0.00 | 0.00 | 33 | 1013.8 |
| 20260508023050 | 16 | 154 | 9.7 | 9.7 | 0.00 | 0.00 | 0.00 | 35 | 1013.6 |
| 20260508022546 | 17 | 151 | 9.7 | 11.3 | 0.00 | 0.00 | 0.00 | 33 | 1013.5 |
| 20260508022043 | 17 | 148 | 9.7 | 11.3 | 0.00 | 0.00 | 0.00 | 33 | 1013.7 |
| 20260508021539 | 16 | 154 | 8.0 | 9.7 | 0.00 | 0.00 | 0.00 | 34 | 1013.6 |
| 20260508021034 | 16 | 153 | 6.4 | 8.0 | 0.00 | 0.00 | 0.00 | 32 | 1013.5 |
| 20260508020532 | 17 | 156 | 3.2 | 6.4 | 0.00 | 0.00 | 0.00 | 31 | 1013.3 |
| 20260508020030 | 17 | 150 | 4.8 | 6.4 | 0.00 | 0.00 | 0.00 | 31 | 1013.6 |
| 20260508015527 | 17 | 156 | 4.8 | 6.4 | 0.00 | 0.00 | 0.00 | 31 | 1013.5 |
| 20260508015024 | 18 | 158 | 6.4 | 6.4 | 0.00 | 0.00 | 0.00 | 30 | 1013.5 |
| 20260508014521 | 19 | 148 | 6.4 | 9.7 | 0.00 | 0.00 | 0.00 | 28 | 1013.5 |
| 20260508014017 | 18 | 139 | 6.4 | 6.4 | 0.00 | 0.00 | 0.00 | 29 | 1013.2 |
| 20260508013513 | 20 | 178 | 4.8 | 6.4 | 0.00 | 0.00 | 0.00 | 29 | 1013.1 |
| 20260508013010 | 21 | 193 | 6.4 | 9.7 | 0.00 | 0.00 | 0.00 | 27 | 1013.2 |
| 20260508012507 | 21 | 200 | 6.4 | 14.5 | 0.00 | 0.00 | 0.00 | 27 | 1013.2 |
| 20260508012004 | 21 | 212 | 8.0 | 14.5 | 0.00 | 0.00 | 0.00 | 26 | 1013.1 |
| 20260508011503 | 22 | 209 | 11.3 | 14.5 | 0.00 | 0.00 | 0.00 | 26 | 1013.0 |
| 20260508010959 | 22 | 211 | 12.9 | 17.7 | 0.00 | 0.00 | 0.00 | 26 | 1013.3 |
| 20260508010451 | 22 | 211 | 16.1 | 27.4 | 0.00 | 0.00 | 0.00 | 25 | 1013.1 |
| 20260508005948 | 22 | 194 | 22.5 | 24.1 | 0.00 | 0.00 | 0.00 | 25 | 1013.2 |
| 20260508005445 | 23 | 206 | 19.3 | 25.7 | 0.00 | 0.00 | 0.00 | 25 | 1013.1 |
| 20260508004941 | 23 | 218 | 11.3 | 17.7 | 0.00 | 0.00 | 0.00 | 25 | 1013.1 |
| 20260508004437 | 23 | 229 | 11.3 | 17.7 | 0.00 | 0.00 | 0.00 | 25 | 1013.1 |
| 20260508003934 | 23 | 219 | 12.9 | 22.5 | 0.00 | 0.00 | 0.00 | 25 | 1013.1 |
| 20260508003431 | 23 | 199 | 22.5 | 29.0 | 0.00 | 0.00 | 0.00 | 24 | 1013.1 |
| 20260508002928 | 23 | 207 | 17.7 | 20.9 | 0.00 | 0.00 | 0.00 | 24 | 1013.1 |
| 20260508002425 | 23 | 223 | 9.7 | 24.1 | 0.00 | 0.00 | 0.00 | 25 | 1013.1 |
| 20260508001921 | 23 | 197 | 12.9 | 30.6 | 0.00 | 0.00 | 0.00 | 25 | 1013.1 |
| 20260508001417 | 23 | 213 | 14.5 | 24.1 | 0.00 | 0.00 | 0.00 | 25 | 1013.0 |
| 20260508000914 | 23 | 274 | 4.8 | 22.5 | 0.00 | 0.00 | 0.00 | 25 | 1013.0 |
| 20260508000412 | 24 | 212 | 9.7 | 14.5 | 0.00 | 0.00 | 0.00 | 24 | 1013.1 |
| 20260507235907 | 24 | 225 | 17.7 | 25.7 | 0.00 | 0.00 | 0.00 | 23 | 1013.1 |
| 20260507235404 | 23 | 199 | 9.7 | 27.4 | 0.00 | 0.00 | 0.00 | 24 | 1013.3 |
| 20260507234901 | 24 | 214 | 11.3 | 19.3 | 0.00 | 0.00 | 0.00 | 24 | 1013.0 |
| 20260507234359 | 24 | 235 | 6.4 | 17.7 | 0.00 | 0.00 | 0.00 | 24 | 1013.0 |
| 20260507233854 | 24 | 212 | 14.5 | 17.7 | 0.00 | 0.00 | 0.00 | 23 | 1012.9 |
| 20260507233351 | 24 | 218 | 20.9 | 32.2 | 0.00 | 0.00 | 0.00 | 23 | 1013.0 |
| 20260507232849 | 24 | 205 | 20.9 | 24.1 | 0.00 | 0.00 | 0.00 | 23 | 1012.9 |
| 20260507232345 | 24 | 213 | 24.1 | 27.4 | 0.00 | 0.00 | 0.00 | 23 | 1013.1 |
| 20260507231843 | 24 | 205 | 17.7 | 22.5 | 0.00 | 0.00 | 0.00 | 23 | 1013.2 |
| 20260507231340 | 25 | 287 | 3.2 | 9.7 | 0.00 | 0.00 | 0.00 | 24 | 1013.2 |
| 20260507230836 | 25 | 210 | 12.9 | 12.9 | 0.00 | 0.00 | 0.00 | 23 | 1013.2 |
| 20260507230333 | 24 | 235 | 17.7 | 22.5 | 0.00 | 0.00 | 0.00 | 23 | 1013.3 |
| 20260507225833 | 23 | 223 | 16.1 | 33.8 | 0.00 | 0.00 | 0.00 | 24 | 1013.3 |
| 20260507225329 | 24 | 223 | 14.5 | 14.5 | 0.00 | 0.00 | 0.00 | 24 | 1013.5 |
| 20260507224826 | 24 | 277 | 6.4 | 17.7 | 0.00 | 0.00 | 0.00 | 25 | 1013.5 |
| 20260507224323 | 24 | 275 | 6.4 | 14.5 | 0.00 | 0.00 | 0.00 | 23 | 1013.5 |
| 20260507223819 | 24 | 314 | 3.2 | 19.3 | 0.00 | 0.00 | 0.00 | 24 | 1013.5 |
| 20260507223315 | 24 | 255 | 11.3 | 17.7 | 0.00 | 0.00 | 0.00 | 24 | 1013.7 |
| 20260507222812 | 24 | 284 | 3.2 | 19.3 | 0.00 | 0.00 | 0.00 | 24 | 1013.6 |
| 20260507222308 | 24 | 241 | 4.8 | 14.5 | 0.00 | 0.00 | 0.00 | 24 | 1013.7 |
| 20260507221806 | 24 | 240 | 11.3 | 22.5 | 0.00 | 0.00 | 0.00 | 24 | 1013.7 |
| 20260507221302 | 23 | 315 | 4.8 | 11.3 | 0.00 | 0.00 | 0.00 | 24 | 1013.8 |
| 20260507220758 | 23 | 231 | 20.9 | 25.7 | 0.00 | 0.00 | 0.00 | 25 | 1013.8 |
| 20260507220257 | 23 | 212 | 17.7 | 24.1 | 0.00 | 0.00 | 0.00 | 25 | 1013.7 |
| 20260507215752 | 23 | 225 | 3.2 | 11.3 | 0.00 | 0.00 | 0.00 | 25 | 1013.8 |
| 20260507215250 | 23 | 221 | 14.5 | 22.5 | 0.00 | 0.00 | 0.00 | 25 | 1014.1 |
| 20260507214747 | 23 | 207 | 22.5 | 33.8 | 0.00 | 0.00 | 0.00 | 25 | 1014.2 |
| 20260507214244 | 23 | 253 | 6.4 | 12.9 | 0.00 | 0.00 | 0.00 | 26 | 1014.3 |
| 20260507213739 | 23 | 195 | 6.4 | 30.6 | 0.00 | 0.00 | 0.00 | 26 | 1014.5 |
| 20260507213237 | 22 | 223 | 19.3 | 30.6 | 0.00 | 0.00 | 0.00 | 26 | 1014.3 |
| 20260507212733 | 23 | 227 | 17.7 | 29.0 | 0.00 | 0.00 | 0.00 | 25 | 1014.7 |
| 20260507212230 | 22 | 221 | 22.5 | 30.6 | 0.00 | 0.00 | 0.00 | 24 | 1014.6 |